createdAt,value
2018-06-04T00:01:13.212Z,19.80
2018-06-04T00:03:42.159Z,19.80
2018-06-04T00:11:08.499Z,19.70
2018-06-04T00:16:06.050Z,19.70
2018-06-04T00:18:34.978Z,19.70
2018-06-04T00:21:03.937Z,19.70
2018-06-04T00:23:32.894Z,19.60
2018-06-04T00:28:30.509Z,19.60
2018-06-04T00:30:59.532Z,19.60
2018-06-04T00:33:28.580Z,19.60
2018-06-04T00:43:23.346Z,19.50
2018-06-04T00:45:52.296Z,19.50
2018-06-04T00:48:21.227Z,19.50
2018-06-04T00:50:50.195Z,19.50
2018-06-04T00:55:59.223Z,19.40
2018-06-04T00:58:28.188Z,19.40
2018-06-04T01:03:25.778Z,19.40
2018-06-04T01:05:54.743Z,19.30
2018-06-04T01:10:52.507Z,19.30
2018-06-04T01:18:19.059Z,19.30
2018-06-04T01:23:16.661Z,19.30
2018-06-04T01:25:45.659Z,19.30
2018-06-04T01:30:43.263Z,19.20
2018-06-04T01:33:12.247Z,19.20
2018-06-04T01:38:09.878Z,19.20
2018-06-04T01:45:36.063Z,19.20
2018-06-04T01:48:05.051Z,19.10
2018-06-04T01:50:34.002Z,19.10
2018-06-04T01:53:02.975Z,19.10
2018-06-04T01:58:00.539Z,19.10
2018-06-04T02:00:29.494Z,19.10
2018-06-04T02:02:58.478Z,19.10
2018-06-04T02:05:27.419Z,19.10
2018-06-04T02:10:24.978Z,19.00
2018-06-04T02:12:53.948Z,19.00
2018-06-04T02:17:51.517Z,19.00
2018-06-04T02:25:17.680Z,18.90
2018-06-04T02:27:46.645Z,18.90
2018-06-04T02:32:44.214Z,18.90
2018-06-04T02:42:38.930Z,18.80
2018-06-04T02:53:02.954Z,18.70
2018-06-04T02:55:31.887Z,18.70
2018-06-04T03:00:29.463Z,18.70
2018-06-04T03:07:55.619Z,18.70
2018-06-04T03:10:24.580Z,18.70
2018-06-04T03:15:22.188Z,18.70
2018-06-04T03:22:48.412Z,18.70
2018-06-04T03:40:09.143Z,18.60
2018-06-04T03:42:38.127Z,18.60
2018-06-04T03:45:07.116Z,18.60
2018-06-04T03:47:36.099Z,18.60
2018-06-04T03:52:33.691Z,18.60
2018-06-04T03:55:02.622Z,18.60
2018-06-04T04:00:00.227Z,18.60
2018-06-04T04:07:26.387Z,18.70
2018-06-04T04:09:55.327Z,18.70
2018-06-04T04:14:52.907Z,18.70
2018-06-04T04:24:48.887Z,18.80
2018-06-04T04:27:17.867Z,18.90
2018-06-04T04:32:15.419Z,18.90
2018-06-04T04:34:44.412Z,19.00
2018-06-04T04:42:11.104Z,19.10
2018-06-04T04:47:08.671Z,19.10
2018-06-04T04:52:06.212Z,19.30
2018-06-04T04:54:35.207Z,19.30
2018-06-04T04:59:32.783Z,19.40
2018-06-04T05:02:01.780Z,19.50
2018-06-04T05:04:30.759Z,19.50
2018-06-04T05:06:59.747Z,19.60
2018-06-04T05:14:25.988Z,19.80
2018-06-04T05:19:23.568Z,19.90
2018-06-04T05:21:52.543Z,20.00
2018-06-04T05:26:50.120Z,20.10
2018-06-04T05:29:19.090Z,20.20
2018-06-04T05:31:48.115Z,20.20
2018-06-04T05:34:17.115Z,20.30
2018-06-04T05:39:14.744Z,20.50
2018-06-04T05:46:41.062Z,20.60
2018-06-04T05:54:07.271Z,20.90
2018-06-04T06:01:33.511Z,21.20
2018-06-04T06:08:59.755Z,21.50
2018-06-04T06:11:28.746Z,21.70
2018-06-04T06:16:26.333Z,21.90
2018-06-04T06:23:52.554Z,22.30
2018-06-04T06:26:21.506Z,22.40
2018-06-04T06:28:50.471Z,22.50
2018-06-04T06:38:45.312Z,23.00
2018-06-04T06:48:41.435Z,23.60
2018-06-04T06:51:10.407Z,23.70
2018-06-04T06:56:08.005Z,23.90
2018-06-04T07:03:34.211Z,24.40
2018-06-04T07:06:03.456Z,24.50
2018-06-04T07:11:01.068Z,24.70
2018-06-04T07:15:58.671Z,24.90
2018-06-04T07:23:24.875Z,25.20
2018-06-04T07:35:48.243Z,25.90
2018-06-04T07:40:45.851Z,26.10
2018-06-04T07:43:14.847Z,26.20
2018-06-04T07:48:12.468Z,26.50
2018-06-04T07:55:38.957Z,26.80
2018-06-04T08:00:36.620Z,27.10
2018-06-04T08:03:05.650Z,27.10
2018-06-04T08:08:03.399Z,27.30
2018-06-04T08:15:29.683Z,27.50
2018-06-04T08:22:55.963Z,27.90
2018-06-04T08:30:22.326Z,28.10
2018-06-04T08:40:17.230Z,28.30
2018-06-04T08:45:14.888Z,28.30
2018-06-04T08:50:13.179Z,28.50
2018-06-04T09:00:08.223Z,29.00
2018-06-04T09:05:06.000Z,29.10
2018-06-04T09:12:32.371Z,29.30
2018-06-04T09:17:30.048Z,29.30
2018-06-04T09:19:59.029Z,29.40
2018-06-04T09:34:51.079Z,30.00
2018-06-04T09:42:17.248Z,30.50
2018-06-04T09:44:46.207Z,30.50
2018-06-04T09:49:43.880Z,30.70
2018-06-04T09:57:10.102Z,30.70
2018-06-04T10:04:36.281Z,31.10
2018-06-04T10:07:05.223Z,31.10
2018-06-04T10:12:02.854Z,31.00
2018-06-04T10:21:57.674Z,30.30
2018-06-04T10:26:55.255Z,30.40
2018-06-04T10:36:50.109Z,31.00
2018-06-04T10:46:45.075Z,30.50
2018-06-04T10:54:13.287Z,30.70
2018-06-04T10:59:10.927Z,30.40
2018-06-04T11:06:37.210Z,29.60
2018-06-04T11:09:08.330Z,29.40
2018-06-04T11:11:37.320Z,29.40
2018-06-04T11:14:06.323Z,29.40
2018-06-04T11:16:35.309Z,29.40
2018-06-04T11:19:04.288Z,29.30
2018-06-04T11:24:01.882Z,29.50
2018-06-04T11:26:30.913Z,29.50
2018-06-04T11:28:59.875Z,29.50
2018-06-04T11:31:28.852Z,29.50
2018-06-04T11:36:26.479Z,29.80
2018-06-04T11:38:56.052Z,30.00
2018-06-04T11:41:25.023Z,30.10
2018-06-04T11:48:51.254Z,30.20
2018-06-04T11:58:46.133Z,30.60
2018-06-04T12:03:43.716Z,30.50
2018-06-04T12:06:12.703Z,30.40
2018-06-04T12:11:10.322Z,30.30
2018-06-04T12:18:36.586Z,30.40
2018-06-04T12:28:31.407Z,30.60
2018-06-04T12:33:29.022Z,30.70
2018-06-04T12:50:49.799Z,30.70
2018-06-04T12:58:16.054Z,30.10
2018-06-04T13:00:45.088Z,29.90
2018-06-04T13:05:42.775Z,29.80
2018-06-04T13:08:11.775Z,29.70
2018-06-04T13:10:40.758Z,29.70
2018-06-04T13:20:35.608Z,29.60
2018-06-04T13:25:33.332Z,29.70
2018-06-04T13:32:59.522Z,29.30
2018-06-04T13:35:28.536Z,29.10
2018-06-04T13:40:26.163Z,28.90
2018-06-04T13:42:55.159Z,28.80
2018-06-04T13:45:24.166Z,28.80
2018-06-04T13:47:53.164Z,28.90
2018-06-04T13:52:50.767Z,28.80
2018-06-04T14:00:17.027Z,28.80
2018-06-04T14:07:43.256Z,29.00
2018-06-04T14:10:12.256Z,29.00
2018-06-04T14:12:41.307Z,28.90
2018-06-04T14:15:10.341Z,28.90
2018-06-04T14:20:07.972Z,29.00
2018-06-04T14:27:34.294Z,28.80
2018-06-04T14:32:39.747Z,28.50
2018-06-04T14:35:09.052Z,28.30
2018-06-04T14:40:07.237Z,28.10
2018-06-04T14:45:05.342Z,28.10
2018-06-04T14:55:01.491Z,27.80
2018-06-04T15:07:25.883Z,27.30
2018-06-04T15:09:54.908Z,27.30
2018-06-04T15:14:52.663Z,27.20
2018-06-04T15:19:50.301Z,27.30
2018-06-04T15:22:19.360Z,27.30
2018-06-04T15:27:17.155Z,27.40
2018-06-04T15:39:41.773Z,27.30
2018-06-04T15:44:39.387Z,27.30
2018-06-04T15:47:08.379Z,27.30
2018-06-04T15:52:06.150Z,27.10
2018-06-04T15:59:32.353Z,26.90
2018-06-04T16:06:58.666Z,26.80
2018-06-04T16:09:27.743Z,26.70
2018-06-04T16:11:56.769Z,26.70
2018-06-04T16:14:25.752Z,26.70
2018-06-04T16:19:23.449Z,26.70
2018-06-04T16:21:52.463Z,26.70
2018-06-04T16:24:21.471Z,26.70
2018-06-04T16:26:50.487Z,26.60
2018-06-04T16:29:19.552Z,26.60
2018-06-04T16:31:48.519Z,26.50
2018-06-04T16:46:40.817Z,26.30
2018-06-04T16:51:38.491Z,26.30
2018-06-04T16:54:07.567Z,26.20
2018-06-04T16:59:05.335Z,26.20
2018-06-04T17:04:02.952Z,26.10
2018-06-04T17:06:32.033Z,26.10
2018-06-04T17:11:29.695Z,26.10
2018-06-04T17:18:55.931Z,26.00
2018-06-04T17:26:22.184Z,25.90
2018-06-04T17:28:51.166Z,25.80
2018-06-04T17:36:17.476Z,25.70
2018-06-04T17:41:15.126Z,25.60
2018-06-04T17:48:41.402Z,25.50
2018-06-04T17:56:07.598Z,25.30
2018-06-04T18:03:33.886Z,25.30
2018-06-04T18:06:04.134Z,25.20
2018-06-04T18:13:30.302Z,25.10
2018-06-04T18:20:56.509Z,25.00
2018-06-04T18:23:25.450Z,25.00
2018-06-04T18:28:23.011Z,24.80
2018-06-04T18:30:51.962Z,24.80
2018-06-04T18:35:49.587Z,24.70
2018-06-04T18:43:15.818Z,24.60
2018-06-04T18:50:42.004Z,24.50
2018-06-04T18:53:11.050Z,24.40
2018-06-04T18:55:40.034Z,24.40
2018-06-04T18:58:09.067Z,24.40
2018-06-04T19:03:06.574Z,24.30
2018-06-04T19:10:32.750Z,24.20
2018-06-04T19:20:27.687Z,24.10
2018-06-04T19:30:22.507Z,23.80
2018-06-04T19:35:20.094Z,23.70
2018-06-04T19:42:46.269Z,23.60
2018-06-04T19:45:15.274Z,23.60
2018-06-04T19:50:12.829Z,23.50
2018-06-04T19:57:39.034Z,23.20
2018-06-04T20:05:05.235Z,23.10
2018-06-04T20:07:34.198Z,23.10
2018-06-04T20:12:31.815Z,22.90
2018-06-04T20:19:58.023Z,22.80
2018-06-04T20:22:26.973Z,22.80
2018-06-04T20:27:24.537Z,22.80
2018-06-04T20:34:50.759Z,22.60
2018-06-04T20:37:19.722Z,22.60
2018-06-04T20:39:48.705Z,22.60
2018-06-04T20:42:17.690Z,22.50
2018-06-04T20:47:15.247Z,22.40
2018-06-04T20:54:41.411Z,22.40
2018-06-04T20:57:10.398Z,22.30
2018-06-04T21:02:08.195Z,22.30
2018-06-04T21:04:37.159Z,22.20
2018-06-04T21:09:34.711Z,22.20
2018-06-04T21:14:32.275Z,22.00
2018-06-04T21:17:01.260Z,22.00
2018-06-04T21:24:27.497Z,21.90
2018-06-04T21:31:53.728Z,21.80
2018-06-04T21:36:51.333Z,21.70
2018-06-04T21:39:20.290Z,21.60
2018-06-04T21:44:17.859Z,21.60
2018-06-04T21:51:48.466Z,21.40
2018-06-04T21:59:14.639Z,21.30
2018-06-04T22:06:40.839Z,21.20
2018-06-04T22:09:09.792Z,21.20
2018-06-04T22:11:38.754Z,21.10
2018-06-04T22:14:07.722Z,21.10
2018-06-04T22:19:05.290Z,21.00
2018-06-04T22:21:34.302Z,20.90
2018-06-04T22:26:31.884Z,20.90
2018-06-04T22:33:58.082Z,20.80
2018-06-04T22:41:24.238Z,20.60
2018-06-04T22:51:19.006Z,20.40
2018-06-04T22:58:45.167Z,20.20
2018-06-04T23:01:14.110Z,20.20
2018-06-04T23:06:11.691Z,20.20
2018-06-04T23:13:37.851Z,20.10
2018-06-04T23:21:04.035Z,20.00
2018-06-04T23:23:33.060Z,19.90
2018-06-04T23:30:59.279Z,19.80
2018-06-04T23:35:56.848Z,19.70
2018-06-04T23:38:25.794Z,19.70
2018-06-04T23:43:23.346Z,19.70
2018-06-04T23:50:49.543Z,19.60
2018-06-04T23:53:18.495Z,19.60
2018-06-04T23:58:16.063Z,19.50
